Time;durP1;ratioP1;P1;durP2;ratioP2;P2;SDS_P1;SDS_P2;PMS_P1;PMS_P2;Temp;Humidity;BMP_temperature;BMP_pressure;BME280_temperature;BME280_humidity;BME280_pressure;Samples;Min_cycle;Max_cycle;Signal;HPM_P1;HPM_P2
2021/12/12 00:02:20;;;;;;;7.43;5.35;;;;;;;;;;5015465;28;20237;-82
2021/12/12 00:04:50;;;;;;;7.40;5.72;;;;;;;;;;5015776;28;20194;-82
2021/12/12 00:07:24;;;;;;;10.77;6.80;;;;;;;;;;5015096;28;20194;-81
2021/12/12 00:09:56;;;;;;;11.73;8.50;;;;;;;;;;5015151;28;20593;-82
2021/12/12 00:12:26;;;;;;;7.75;6.82;;;;;;;;;;5015482;28;20661;-82
2021/12/12 00:14:55;;;;;;;5.75;4.88;;;;;;;;;;5015730;28;20194;-82
2021/12/12 00:17:24;;;;;;;8.63;6.75;;;;;;;;;;5015374;28;20573;-82
2021/12/12 00:19:52;;;;;;;6.50;5.80;;;;;;;;;;5015156;28;20227;-82
2021/12/12 00:22:25;;;;;;;7.25;5.75;;;;;;;;;;5015539;28;20646;-83
2021/12/12 00:24:53;;;;;;;9.63;6.40;;;;;;;;;;5015104;28;20211;-82
2021/12/12 00:27:21;;;;;;;6.55;5.88;;;;;;;;;;5015154;28;20187;-82
2021/12/12 00:29:50;;;;;;;12.25;7.10;;;;;;;;;;5015151;28;20222;-82
2021/12/12 00:32:21;;;;;;;8.50;6.63;;;;;;;;;;5015190;28;20202;-81
2021/12/12 00:34:59;;;;;;;10.30;7.50;;;;;;;;;;5014503;28;20188;-82
2021/12/12 00:37:28;;;;;;;9.55;7.18;;;;;;;;;;5015244;28;20210;-82
2021/12/12 00:40:00;;;;;;;8.25;7.13;;;;;;;;;;5014965;28;20215;-82
2021/12/12 00:42:32;;;;;;;7.88;6.13;;;;;;;;;;5015370;28;20183;-81
2021/12/12 00:45:07;;;;;;;8.65;6.10;;;;;;;;;;5016633;28;20555;-81
2021/12/12 00:47:34;;;;;;;9.80;7.22;;;;;;;;;;5015837;28;20198;-81
2021/12/12 00:50:06;;;;;;;11.52;7.80;;;;;;;;;;5015531;28;20712;-81
2021/12/12 00:52:33;;;;;;;9.63;6.75;;;;;;;;;;5015652;28;20187;-82
2021/12/12 00:55:01;;;;;;;11.70;7.45;;;;;;;;;;5016018;28;20201;-81
2021/12/12 00:57:29;;;;;;;9.35;7.55;;;;;;;;;;5015655;28;20223;-82
2021/12/12 00:59:57;;;;;;;14.80;11.07;;;;;;;;;;5015798;28;20742;-82
2021/12/12 01:02:29;;;;;;;9.10;7.25;;;;;;;;;;5016009;28;20203;-82
2021/12/12 01:05:04;;;;;;;12.00;7.97;;;;;;;;;;5016229;28;20187;-82
2021/12/12 01:07:36;;;;;;;7.13;5.30;;;;;;;;;;5015188;28;20213;-82
2021/12/12 01:10:11;;;;;;;8.77;6.88;;;;;;;;;;5015060;28;20222;-82
2021/12/12 01:12:40;;;;;;;7.95;7.15;;;;;;;;;;5015006;28;20186;-82
2021/12/12 01:15:14;;;;;;;15.43;12.13;;;;;;;;;;5015651;28;20191;-81
2021/12/12 01:17:46;;;;;;;15.40;11.38;;;;;;;;;;5014709;28;20207;-81
2021/12/12 01:20:21;;;;;;;12.98;9.43;;;;;;;;;;5014014;28;20217;-83
2021/12/12 01:22:54;;;;;;;17.70;13.93;;;;;;;;;;5013593;28;20214;-81
2021/12/12 01:25:26;;;;;;;11.38;9.88;;;;;;;;;;5014013;28;20218;-82
2021/12/12 01:27:55;;;;;;;10.27;8.52;;;;;;;;;;5014015;28;20183;-80
2021/12/12 01:30:24;;;;;;;15.50;11.35;;;;;;;;;;5013892;28;20203;-81
2021/12/12 01:32:52;;;;;;;11.48;9.02;;;;;;;;;;5014057;28;20187;-81
2021/12/12 01:35:22;;;;;;;12.02;9.43;;;;;;;;;;5013718;28;20192;-82
2021/12/12 01:40:35;;;;;;;12.80;11.25;;;;;;;;;;5012595;28;20199;-82
2021/12/12 01:43:10;;;;;;;14.25;10.05;;;;;;;;;;5013959;28;20210;-81
2021/12/12 01:45:44;;;;;;;11.25;8.52;;;;;;;;;;5014338;28;20197;-80
2021/12/12 01:48:19;;;;;;;17.83;13.05;;;;;;;;;;5017953;28;20191;-82
2021/12/12 01:50:54;;;;;;;9.65;7.38;;;;;;;;;;5017941;28;20202;-81
2021/12/12 01:53:26;;;;;;;11.38;8.68;;;;;;;;;;5017782;28;20186;-81
2021/12/12 01:55:59;;;;;;;8.45;7.00;;;;;;;;;;5017825;28;20187;-81
2021/12/12 01:58:30;;;;;;;8.70;6.88;;;;;;;;;;5017608;28;20262;-80
2021/12/12 02:01:01;;;;;;;7.80;6.97;;;;;;;;;;5018977;28;20203;-81
2021/12/12 02:03:34;;;;;;;17.75;11.05;;;;;;;;;;5019584;28;20198;-81
2021/12/12 02:06:09;;;;;;;12.35;10.00;;;;;;;;;;5019676;28;20645;-82
2021/12/12 02:08:37;;;;;;;14.18;9.73;;;;;;;;;;5019629;28;20218;-81
2021/12/12 02:11:10;;;;;;;18.92;12.98;;;;;;;;;;5019347;28;20207;-82
2021/12/12 02:13:42;;;;;;;10.80;8.75;;;;;;;;;;5019647;28;20192;-82
2021/12/12 02:16:11;;;;;;;14.30;10.63;;;;;;;;;;5019473;28;20180;-82
2021/12/12 02:18:45;;;;;;;10.07;8.18;;;;;;;;;;5018907;28;20269;-82
2021/12/12 02:21:23;;;;;;;15.50;11.65;;;;;;;;;;5019599;28;20195;-82
2021/12/12 02:24:22;;;;;;;15.90;11.65;;;;;;;;;;5019241;28;20644;-82
2021/12/12 02:35:21;;;;;;;12.77;10.30;;;;;;;;;;5018933;28;20249;-82
2021/12/12 02:37:49;;;;;;;13.15;8.15;;;;;;;;;;5019615;28;20234;-83
2021/12/12 02:40:25;;;;;;;10.85;7.78;;;;;;;;;;5019825;28;20223;-82
2021/12/12 02:42:53;;;;;;;9.10;5.78;;;;;;;;;;5019576;28;20187;-82
2021/12/12 02:45:22;;;;;;;7.40;5.82;;;;;;;;;;5019294;28;20203;-83
2021/12/12 02:47:57;;;;;;;5.63;4.35;;;;;;;;;;5019573;28;20191;-82
2021/12/12 02:50:30;;;;;;;4.88;4.07;;;;;;;;;;5019191;28;20227;-83
2021/12/12 02:53:01;;;;;;;8.38;4.43;;;;;;;;;;5019238;28;20218;-83
2021/12/12 02:55:36;;;;;;;4.78;4.30;;;;;;;;;;5018849;28;20203;-83
2021/12/12 02:58:07;;;;;;;4.13;3.63;;;;;;;;;;5018975;28;20795;-82
2021/12/12 03:00:39;;;;;;;5.28;4.40;;;;;;;;;;5019221;28;20183;-82
2021/12/12 03:03:08;;;;;;;6.47;4.30;;;;;;;;;;5019352;28;20195;-82
2021/12/12 03:05:42;;;;;;;5.45;4.00;;;;;;;;;;5018742;28;20202;-82
2021/12/12 03:08:10;;;;;;;7.03;5.32;;;;;;;;;;5018326;28;20283;-83
2021/12/12 03:10:44;;;;;;;5.38;3.95;;;;;;;;;;5018590;28;20226;-82
2021/12/12 03:13:12;;;;;;;6.40;4.72;;;;;;;;;;5018712;28;20550;-83
2021/12/12 03:15:42;;;;;;;6.38;5.75;;;;;;;;;;5018824;28;20183;-83
2021/12/12 03:18:15;;;;;;;8.02;6.13;;;;;;;;;;5018907;28;20198;-81
2021/12/12 03:20:47;;;;;;;6.10;4.10;;;;;;;;;;5017740;28;20194;-82
2021/12/12 03:23:20;;;;;;;5.93;5.18;;;;;;;;;;5018117;28;20215;-82
2021/12/12 03:25:53;;;;;;;5.07;4.57;;;;;;;;;;5018012;28;20553;-83
2021/12/12 03:28:26;;;;;;;6.30;4.78;;;;;;;;;;5018500;28;20223;-82
2021/12/12 03:30:58;;;;;;;6.90;5.03;;;;;;;;;;5018395;28;20198;-83
2021/12/12 03:33:26;;;;;;;8.35;6.15;;;;;;;;;;5018255;28;20405;-83
2021/12/12 03:35:56;;;;;;;8.10;5.50;;;;;;;;;;5018714;28;20180;-83
2021/12/12 03:38:27;;;;;;;5.47;4.72;;;;;;;;;;5017886;28;20225;-82
2021/12/12 03:40:58;;;;;;;6.28;5.38;;;;;;;;;;5018540;28;20206;-81
2021/12/12 03:43:28;;;;;;;7.88;5.72;;;;;;;;;;5018263;28;20192;-83
2021/12/12 03:45:56;;;;;;;6.63;5.90;;;;;;;;;;5018637;28;20186;-83
2021/12/12 03:48:28;;;;;;;7.97;6.47;;;;;;;;;;5018307;28;20234;-82
2021/12/12 03:50:59;;;;;;;4.75;4.35;;;;;;;;;;5018387;28;21985;-83
2021/12/12 03:53:28;;;;;;;7.85;6.97;;;;;;;;;;5017893;28;20573;-83
2021/12/12 03:55:58;;;;;;;7.93;6.72;;;;;;;;;;5018630;28;20206;-82
2021/12/12 03:58:26;;;;;;;6.63;5.90;;;;;;;;;;5017856;28;20593;-82
2021/12/12 04:00:59;;;;;;;7.80;6.70;;;;;;;;;;5017765;28;20207;-82
2021/12/12 04:03:27;;;;;;;6.57;5.90;;;;;;;;;;5017537;28;20191;-83
2021/12/12 04:05:59;;;;;;;7.53;6.15;;;;;;;;;;5017584;28;20183;-82
2021/12/12 04:08:27;;;;;;;5.72;5.18;;;;;;;;;;5017429;28;20222;-83
2021/12/12 04:10:57;;;;;;;5.03;4.53;;;;;;;;;;5017278;28;20207;-83
2021/12/12 04:13:25;;;;;;;5.55;4.43;;;;;;;;;;5017868;28;20203;-82
2021/12/12 04:15:55;;;;;;;5.40;4.90;;;;;;;;;;5017548;28;20203;-83
2021/12/12 04:18:24;;;;;;;5.85;4.72;;;;;;;;;;5017784;28;20228;-83
2021/12/12 04:20:53;;;;;;;9.15;6.78;;;;;;;;;;5017301;28;20223;-83
2021/12/12 04:23:27;;;;;;;6.25;5.10;;;;;;;;;;5017423;28;20207;-83
2021/12/12 04:25:59;;;;;;;5.95;5.45;;;;;;;;;;5018010;28;20184;-82
2021/12/12 04:28:27;;;;;;;4.90;4.40;;;;;;;;;;5017835;28;20234;-83
2021/12/12 04:30:54;;;;;;;5.88;4.93;;;;;;;;;;5017546;28;20199;-83
2021/12/12 04:33:23;;;;;;;6.70;6.00;;;;;;;;;;5017221;28;20796;-83
2021/12/12 04:35:50;;;;;;;5.03;4.25;;;;;;;;;;5018076;28;20191;-82
2021/12/12 04:38:18;;;;;;;6.35;4.22;;;;;;;;;;5017555;28;20245;-84
2021/12/12 04:40:45;;;;;;;6.68;5.85;;;;;;;;;;5017599;28;20219;-83
2021/12/12 04:43:14;;;;;;;6.80;5.57;;;;;;;;;;5016811;28;20257;-83
2021/12/12 04:46:03;;;;;;;5.95;5.38;;;;;;;;;;5000662;28;20646;-83
2021/12/12 04:51:26;;;;;;;5.53;3.97;;;;;;;;;;5016483;28;20198;-82
2021/12/12 04:53:59;;;;;;;7.70;5.75;;;;;;;;;;5017243;28;20191;-83
2021/12/12 04:56:30;;;;;;;9.50;6.63;;;;;;;;;;5017111;28;20223;-82
2021/12/12 04:59:08;;;;;;;6.45;4.78;;;;;;;;;;5016494;28;20309;-82
2021/12/12 05:01:43;;;;;;;3.63;3.33;;;;;;;;;;5016185;28;20704;-83
2021/12/12 05:04:17;;;;;;;5.53;4.50;;;;;;;;;;5011486;28;20199;-83
2021/12/12 05:06:51;;;;;;;4.82;4.30;;;;;;;;;;5002748;28;20199;-81
2021/12/12 05:09:24;;;;;;;7.07;4.88;;;;;;;;;;5009551;28;20219;-82
2021/12/12 05:11:56;;;;;;;5.95;4.60;;;;;;;;;;5004763;28;20207;-82
2021/12/12 05:14:28;;;;;;;3.88;3.47;;;;;;;;;;5003665;28;20210;-81
2021/12/12 05:17:06;;;;;;;4.82;4.15;;;;;;;;;;5004087;28;20665;-81
2021/12/12 05:19:35;;;;;;;5.82;4.65;;;;;;;;;;5004591;28;20219;-82
2021/12/12 05:22:10;;;;;;;5.00;4.50;;;;;;;;;;5006424;28;20206;-81
2021/12/12 05:24:39;;;;;;;4.75;4.30;;;;;;;;;;5005722;28;20199;-82
2021/12/12 05:27:10;;;;;;;4.63;3.72;;;;;;;;;;5006174;28;20646;-82
2021/12/12 05:29:43;;;;;;;7.68;4.38;;;;;;;;;;5005675;28;20690;-81
2021/12/12 05:32:12;;;;;;;7.97;4.93;;;;;;;;;;5004677;28;20196;-83
2021/12/12 05:34:44;;;;;;;5.95;4.93;;;;;;;;;;5004867;28;20187;-82
2021/12/12 05:37:13;;;;;;;5.10;4.25;;;;;;;;;;5010781;28;20191;-82
2021/12/12 05:39:42;;;;;;;4.22;3.53;;;;;;;;;;5009303;28;20215;-83
2021/12/12 05:42:11;;;;;;;4.63;3.67;;;;;;;;;;5009180;28;20204;-82
2021/12/12 05:44:40;;;;;;;4.80;3.40;;;;;;;;;;5004009;28;20195;-83
2021/12/12 05:47:12;;;;;;;6.32;4.50;;;;;;;;;;5004494;28;20836;-82
2021/12/12 05:49:42;;;;;;;10.40;4.78;;;;;;;;;;5003812;28;20238;-82
2021/12/12 05:52:12;;;;;;;8.60;4.53;;;;;;;;;;5005414;28;20210;-82
2021/12/12 05:54:40;;;;;;;4.22;3.35;;;;;;;;;;5005149;28;20203;-82
2021/12/12 05:57:09;;;;;;;6.35;4.55;;;;;;;;;;5004348;28;20210;-82
2021/12/12 05:59:39;;;;;;;5.32;4.80;;;;;;;;;;5003707;28;20269;-82
2021/12/12 06:02:07;;;;;;;5.95;5.15;;;;;;;;;;5005213;28;20222;-82
2021/12/12 06:04:37;;;;;;;6.28;5.68;;;;;;;;;;5005102;28;20200;-82
2021/12/12 06:07:08;;;;;;;8.95;5.30;;;;;;;;;;5004286;28;20183;-81
2021/12/12 06:09:36;;;;;;;6.43;5.45;;;;;;;;;;5004157;28;20211;-82
2021/12/12 06:12:06;;;;;;;4.82;4.07;;;;;;;;;;5005365;28;20188;-82
2021/12/12 06:14:37;;;;;;;4.90;3.83;;;;;;;;;;5004658;28;20206;-82
2021/12/12 06:17:09;;;;;;;4.72;4.32;;;;;;;;;;5003407;28;20196;-83
2021/12/12 06:19:37;;;;;;;5.57;4.32;;;;;;;;;;5004275;28;20215;-81
2021/12/12 06:22:06;;;;;;;4.35;3.67;;;;;;;;;;5005480;28;20210;-82
2021/12/12 06:24:36;;;;;;;4.63;3.47;;;;;;;;;;5000447;28;20219;-83
2021/12/12 06:27:08;;;;;;;6.80;4.10;;;;;;;;;;4994795;28;20208;-81
2021/12/12 06:29:37;;;;;;;3.17;2.88;;;;;;;;;;4995503;28;20239;-83
2021/12/12 06:32:06;;;;;;;5.13;4.63;;;;;;;;;;4997305;28;20196;-82
2021/12/12 06:34:34;;;;;;;5.63;3.85;;;;;;;;;;4999792;28;20208;-82
2021/12/12 06:37:02;;;;;;;4.13;3.72;;;;;;;;;;4999782;28;20231;-83
2021/12/12 06:39:30;;;;;;;3.13;2.78;;;;;;;;;;4999567;28;20226;-82
2021/12/12 06:41:58;;;;;;;6.25;3.40;;;;;;;;;;4999595;28;20227;-82
2021/12/12 06:44:25;;;;;;;3.20;2.83;;;;;;;;;;4999248;28;20661;-82
2021/12/12 06:46:54;;;;;;;4.43;3.83;;;;;;;;;;4999837;28;20207;-82
2021/12/12 06:49:24;;;;;;;5.05;4.55;;;;;;;;;;4998206;28;20244;-82
2021/12/12 06:51:55;;;;;;;5.10;3.40;;;;;;;;;;4999929;28;20211;-83
2021/12/12 06:54:27;;;;;;;5.75;3.63;;;;;;;;;;4999658;28;20254;-82
2021/12/12 06:56:59;;;;;;;5.28;3.85;;;;;;;;;;4999712;28;20215;-82
2021/12/12 06:59:30;;;;;;;3.88;3.03;;;;;;;;;;4999663;28;20732;-81
2021/12/12 07:01:58;;;;;;;7.22;4.82;;;;;;;;;;4998753;28;20239;-81
2021/12/12 07:04:29;;;;;;;3.88;3.58;;;;;;;;;;4999626;28;20212;-85
2021/12/12 07:07:02;;;;;;;3.35;3.15;;;;;;;;;;4999468;28;20207;-83
2021/12/12 07:09:31;;;;;;;4.00;3.70;;;;;;;;;;4999066;28;20239;-84
2021/12/12 07:12:01;;;;;;;4.85;4.38;;;;;;;;;;4999262;28;20291;-82
2021/12/12 07:14:29;;;;;;;4.82;4.38;;;;;;;;;;4999129;28;20206;-82
2021/12/12 07:16:58;;;;;;;3.65;3.35;;;;;;;;;;5000313;28;20208;-84
2021/12/12 07:19:27;;;;;;;4.25;3.85;;;;;;;;;;5000449;28;20223;-84
2021/12/12 07:21:55;;;;;;;6.20;4.22;;;;;;;;;;4998989;28;20678;-84
2021/12/12 07:24:24;;;;;;;6.32;4.60;;;;;;;;;;5000407;28;20200;-82
2021/12/12 07:26:55;;;;;;;4.38;3.78;;;;;;;;;;4999336;28;20646;-83
2021/12/12 07:29:23;;;;;;;4.78;4.28;;;;;;;;;;4999772;28;20239;-82
2021/12/12 07:31:51;;;;;;;5.05;4.30;;;;;;;;;;4999222;28;20181;-82
2021/12/12 07:34:18;;;;;;;6.70;4.35;;;;;;;;;;4999143;28;20243;-84
2021/12/12 07:36:59;;;;;;;6.28;4.35;;;;;;;;;;4999364;28;20188;-84
2021/12/12 07:39:27;;;;;;;5.15;4.60;;;;;;;;;;5000392;28;20235;-84
2021/12/12 07:41:59;;;;;;;4.30;3.55;;;;;;;;;;5000703;28;20211;-84
2021/12/12 07:44:32;;;;;;;8.23;4.80;;;;;;;;;;4998280;28;20275;-81
2021/12/12 07:47:01;;;;;;;5.32;3.97;;;;;;;;;;4999223;28;20188;-81
2021/12/12 07:49:33;;;;;;;4.82;4.28;;;;;;;;;;5010012;28;20245;-80
2021/12/12 07:52:03;;;;;;;5.53;4.05;;;;;;;;;;5035737;28;20202;-80
2021/12/12 07:54:31;;;;;;;4.90;3.63;;;;;;;;;;5031841;28;20187;-80
2021/12/12 07:56:58;;;;;;;5.00;3.97;;;;;;;;;;5015561;28;20209;-80
2021/12/12 07:59:26;;;;;;;5.35;3.38;;;;;;;;;;5015799;28;20226;-80
2021/12/12 08:01:54;;;;;;;3.60;3.30;;;;;;;;;;5015796;28;20211;-80
2021/12/12 08:04:27;;;;;;;4.75;4.18;;;;;;;;;;5015906;28;20584;-80
2021/12/12 08:06:55;;;;;;;3.35;3.10;;;;;;;;;;5015344;28;20183;-80
2021/12/12 08:09:25;;;;;;;3.80;2.80;;;;;;;;;;5015602;28;20233;-80
2021/12/12 08:11:54;;;;;;;3.92;3.35;;;;;;;;;;5015962;28;20190;-82
2021/12/12 08:14:25;;;;;;;8.10;4.47;;;;;;;;;;5015462;28;20191;-82
2021/12/12 08:16:54;;;;;;;3.60;3.25;;;;;;;;;;5015808;28;20187;-80
2021/12/12 08:19:25;;;;;;;4.47;2.95;;;;;;;;;;5015526;28;20227;-79
2021/12/12 08:22:00;;;;;;;3.58;3.00;;;;;;;;;;5015607;28;20233;-81
2021/12/12 08:24:29;;;;;;;3.55;2.75;;;;;;;;;;5015820;28;20205;-81
2021/12/12 08:26:57;;;;;;;3.80;3.45;;;;;;;;;;5015397;28;20211;-81
2021/12/12 08:29:26;;;;;;;4.63;3.85;;;;;;;;;;5015566;28;20297;-82
2021/12/12 08:31:54;;;;;;;3.75;3.17;;;;;;;;;;5015996;28;20203;-82
2021/12/12 08:34:21;;;;;;;3.58;3.28;;;;;;;;;;5015996;28;20203;-81
2021/12/12 08:36:53;;;;;;;4.35;3.72;;;;;;;;;;5016125;28;20210;-82
2021/12/12 08:39:21;;;;;;;5.60;3.60;;;;;;;;;;5016513;28;20226;-83
2021/12/12 08:41:52;;;;;;;4.65;3.17;;;;;;;;;;5016120;28;20656;-83
2021/12/12 08:44:20;;;;;;;4.22;3.53;;;;;;;;;;5016000;28;20569;-82
2021/12/12 08:46:52;;;;;;;3.20;2.90;;;;;;;;;;5015739;28;20210;-80
2021/12/12 08:49:23;;;;;;;3.70;3.40;;;;;;;;;;5016442;28;20227;-80
2021/12/12 08:51:54;;;;;;;5.72;4.43;;;;;;;;;;5011561;28;20233;-81
2021/12/12 08:54:27;;;;;;;3.22;2.90;;;;;;;;;;5012789;28;20277;-83
2021/12/12 08:57:04;;;;;;;3.40;3.10;;;;;;;;;;5007207;28;20231;-81
2021/12/12 08:59:39;;;;;;;8.27;3.78;;;;;;;;;;4997630;28;20314;-80
2021/12/12 09:02:10;;;;;;;3.70;3.40;;;;;;;;;;4996207;28;20215;-80
2021/12/12 09:04:44;;;;;;;3.78;3.15;;;;;;;;;;4996918;28;20180;-81
2021/12/12 09:07:19;;;;;;;3.40;3.10;;;;;;;;;;4996003;28;20641;-80
2021/12/12 09:09:51;;;;;;;4.95;3.15;;;;;;;;;;4996101;28;20226;-80
2021/12/12 09:12:24;;;;;;;3.80;3.50;;;;;;;;;;4996392;28;20188;-81
2021/12/12 09:14:56;;;;;;;5.20;3.67;;;;;;;;;;4996082;28;20188;-80
2021/12/12 09:17:31;;;;;;;4.50;4.10;;;;;;;;;;4996072;28;20590;-81
2021/12/12 09:20:09;;;;;;;4.88;4.38;;;;;;;;;;4995952;28;20231;-80
2021/12/12 09:22:41;;;;;;;6.68;4.20;;;;;;;;;;4996042;28;20224;-81
2021/12/12 09:25:17;;;;;;;8.38;4.45;;;;;;;;;;4995706;28;20196;-80
2021/12/12 09:27:50;;;;;;;4.88;3.53;;;;;;;;;;4995759;28;20182;-80
2021/12/12 09:30:20;;;;;;;4.50;4.10;;;;;;;;;;4996018;28;20234;-80
2021/12/12 09:32:56;;;;;;;3.15;2.90;;;;;;;;;;4995658;28;20184;-80
2021/12/12 09:35:31;;;;;;;3.08;2.85;;;;;;;;;;4995784;28;20194;-79
2021/12/12 09:38:02;;;;;;;3.22;2.92;;;;;;;;;;4995589;28;20181;-81
2021/12/12 09:40:58;;;;;;;3.88;3.53;;;;;;;;;;4995854;28;20647;-81
2021/12/12 09:43:43;;;;;;;4.43;3.67;;;;;;;;;;4996089;28;20204;-81
2021/12/12 09:46:30;;;;;;;5.20;3.25;;;;;;;;;;5015014;28;20214;-81
2021/12/12 09:52:55;;;;;;;3.80;3.50;;;;;;;;;;5015281;28;20191;-81
2021/12/12 09:55:27;;;;;;;2.80;2.60;;;;;;;;;;4994991;28;20244;-81
2021/12/12 09:58:00;;;;;;;4.85;3.83;;;;;;;;;;5002070;28;20572;-80
2021/12/12 10:00:37;;;;;;;5.15;4.28;;;;;;;;;;5013431;28;20277;-80
2021/12/12 10:03:16;;;;;;;4.25;3.50;;;;;;;;;;5012065;28;20708;-80
2021/12/12 10:05:55;;;;;;;2.70;2.50;;;;;;;;;;5008739;28;20206;-81
2021/12/12 10:08:36;;;;;;;3.85;3.05;;;;;;;;;;5011629;28;20215;-81
2021/12/12 10:11:09;;;;;;;5.95;4.53;;;;;;;;;;4999589;28;20296;-80
2021/12/12 10:13:45;;;;;;;3.83;3.25;;;;;;;;;;5000037;28;20211;-81
2021/12/12 10:16:24;;;;;;;3.92;3.55;;;;;;;;;;4999623;28;20183;-81
2021/12/12 10:19:00;;;;;;;5.15;3.63;;;;;;;;;;4999210;28;20219;-81
2021/12/12 10:21:33;;;;;;;3.83;3.03;;;;;;;;;;4999471;28;20234;-82
2021/12/12 10:24:14;;;;;;;3.35;3.05;;;;;;;;;;4998962;28;20215;-81
2021/12/12 10:27:14;;;;;;;4.93;3.20;;;;;;;;;;5012560;28;20217;-82
2021/12/12 10:30:17;;;;;;;3.28;2.95;;;;;;;;;;5007202;28;20216;-82
2021/12/12 10:32:56;;;;;;;3.80;3.45;;;;;;;;;;5019054;28;20751;-83
2021/12/12 10:35:29;;;;;;;6.32;3.30;;;;;;;;;;5018626;28;20659;-83
2021/12/12 10:38:06;;;;;;;3.20;2.90;;;;;;;;;;5018019;28;20656;-82
2021/12/12 10:40:39;;;;;;;3.53;3.22;;;;;;;;;;5017348;28;20585;-82
2021/12/12 10:43:12;;;;;;;5.43;4.07;;;;;;;;;;5000800;28;20592;-82
2021/12/12 10:45:45;;;;;;;3.88;3.03;;;;;;;;;;4999158;28;20245;-82
2021/12/12 10:48:18;;;;;;;3.95;3.65;;;;;;;;;;4998955;28;20267;-82
2021/12/12 10:50:56;;;;;;;4.47;2.88;;;;;;;;;;4998875;28;20188;-84
2021/12/12 10:53:30;;;;;;;4.40;3.97;;;;;;;;;;4998506;28;20673;-85
2021/12/12 10:56:03;;;;;;;5.05;3.10;;;;;;;;;;4999008;28;20195;-83
2021/12/12 10:58:37;;;;;;;2.75;2.53;;;;;;;;;;4999201;28;20223;-84
2021/12/12 11:01:08;;;;;;;2.63;2.42;;;;;;;;;;4998908;28;20191;-84
2021/12/12 11:03:43;;;;;;;4.18;3.88;;;;;;;;;;4999171;28;20214;-85
2021/12/12 11:06:16;;;;;;;2.65;2.45;;;;;;;;;;4998193;28;20249;-83
2021/12/12 11:08:52;;;;;;;3.63;3.20;;;;;;;;;;4998227;28;20716;-82
2021/12/12 11:11:24;;;;;;;3.10;2.80;;;;;;;;;;4998340;28;20202;-82
2021/12/12 11:13:55;;;;;;;2.95;2.75;;;;;;;;;;4998123;28;20188;-81
2021/12/12 11:16:30;;;;;;;3.33;3.00;;;;;;;;;;4998227;28;20204;-81
2021/12/12 11:19:07;;;;;;;3.45;3.15;;;;;;;;;;4998656;28;20234;-81
2021/12/12 11:21:38;;;;;;;3.33;3.03;;;;;;;;;;4998062;28;20253;-82
2021/12/12 11:24:13;;;;;;;4.18;3.60;;;;;;;;;;4997759;28;20214;-81
2021/12/12 11:26:45;;;;;;;7.95;3.88;;;;;;;;;;4996684;28;20237;-80
2021/12/12 11:29:17;;;;;;;3.40;2.90;;;;;;;;;;4997169;28;20636;-80
2021/12/12 11:31:49;;;;;;;2.88;2.67;;;;;;;;;;4997163;28;20191;-81
2021/12/12 11:34:19;;;;;;;4.57;3.35;;;;;;;;;;4996815;28;20630;-80
2021/12/12 11:36:59;;;;;;;3.58;3.10;;;;;;;;;;4999411;28;20213;-81
2021/12/12 11:39:33;;;;;;;4.75;4.10;;;;;;;;;;5017606;28;20305;-80
2021/12/12 11:42:05;;;;;;;4.00;3.60;;;;;;;;;;5016977;28;20190;-80
2021/12/12 11:44:38;;;;;;;4.20;2.83;;;;;;;;;;5017453;28;20223;-82
2021/12/12 11:47:14;;;;;;;4.22;3.83;;;;;;;;;;5016323;28;20187;-80
2021/12/12 11:49:52;;;;;;;4.30;3.90;;;;;;;;;;5015500;28;20236;-80
2021/12/12 11:52:36;;;;;;;4.60;3.17;;;;;;;;;;5017531;28;20207;-81
2021/12/12 11:55:09;;;;;;;7.25;4.15;;;;;;;;;;5017062;28;20206;-81
2021/12/12 11:57:48;;;;;;;7.13;4.45;;;;;;;;;;5017000;28;20207;-80
2021/12/12 12:00:21;;;;;;;5.72;3.40;;;;;;;;;;5016858;28;20227;-80
2021/12/12 12:03:04;;;;;;;3.20;2.92;;;;;;;;;;5016718;28;20179;-81
2021/12/12 12:05:38;;;;;;;9.50;4.13;;;;;;;;;;5016481;28;20213;-79
2021/12/12 12:08:17;;;;;;;4.10;3.65;;;;;;;;;;5016343;28;20199;-80
2021/12/12 12:10:55;;;;;;;3.88;3.38;;;;;;;;;;5015784;28;20203;-81
2021/12/12 12:13:45;;;;;;;4.72;4.22;;;;;;;;;;5016505;28;20838;-80
2021/12/12 12:16:26;;;;;;;9.02;4.90;;;;;;;;;;5016156;28;20209;-80
2021/12/12 12:19:06;;;;;;;12.32;4.40;;;;;;;;;;5016647;28;20630;-81
2021/12/12 12:21:42;;;;;;;5.45;4.95;;;;;;;;;;5015874;28;20199;-80
2021/12/12 12:24:19;;;;;;;4.72;4.05;;;;;;;;;;5015294;28;20203;-80
2021/12/12 12:26:55;;;;;;;6.20;4.20;;;;;;;;;;5015623;28;20195;-80
2021/12/12 12:30:37;;;;;;;4.55;4.15;;;;;;;;;;5014825;28;20720;-80
2021/12/12 12:34:16;;;;;;;10.38;4.43;;;;;;;;;;5015308;28;20687;-80
2021/12/12 12:37:51;;;;;;;3.95;3.65;;;;;;;;;;5016486;28;20214;-82
2021/12/12 12:41:45;;;;;;;4.57;3.50;;;;;;;;;;5016466;28;20230;-80
2021/12/12 12:45:23;;;;;;;4.05;3.65;;;;;;;;;;4955701;28;20633;-80
2021/12/12 12:48:45;;;;;;;4.53;3.63;;;;;;;;;;4921777;29;20242;-80
2021/12/12 12:51:25;;;;;;;4.00;3.63;;;;;;;;;;4955682;29;20204;-80
2021/12/12 12:54:23;;;;;;;4.28;3.88;;;;;;;;;;5016107;28;20213;-80
2021/12/12 12:57:18;;;;;;;3.10;2.78;;;;;;;;;;5002492;28;20262;-82
2021/12/12 13:00:06;;;;;;;3.50;3.20;;;;;;;;;;4996211;28;20254;-79
2021/12/12 13:02:53;;;;;;;3.80;3.03;;;;;;;;;;4995527;28;20211;-80
2021/12/12 13:06:28;;;;;;;5.10;3.38;;;;;;;;;;4995604;28;20226;-78
2021/12/12 13:09:25;;;;;;;5.53;4.05;;;;;;;;;;4990913;28;20232;-79
2021/12/12 13:12:33;;;;;;;5.63;4.28;;;;;;;;;;4996405;28;20239;-80
2021/12/12 13:15:10;;;;;;;5.25;3.78;;;;;;;;;;4996177;28;20195;-80
2021/12/12 13:17:56;;;;;;;3.20;2.88;;;;;;;;;;4996074;28;20246;-80
2021/12/12 13:20:35;;;;;;;3.05;2.85;;;;;;;;;;4995357;28;20247;-80
2021/12/12 13:23:31;;;;;;;3.40;3.10;;;;;;;;;;4995652;28;20208;-80
2021/12/12 13:26:04;;;;;;;3.72;3.10;;;;;;;;;;4995994;28;20650;-80
2021/12/12 13:28:42;;;;;;;3.40;3.05;;;;;;;;;;4996421;28;20270;-81
2021/12/12 13:31:19;;;;;;;3.42;3.13;;;;;;;;;;4995840;28;20689;-80
2021/12/12 13:33:53;;;;;;;2.83;2.63;;;;;;;;;;4996135;28;20207;-80
2021/12/12 13:36:43;;;;;;;5.22;2.90;;;;;;;;;;4996086;28;20188;-80
2021/12/12 13:39:17;;;;;;;4.15;3.75;;;;;;;;;;4995819;28;20256;-80
2021/12/12 13:42:16;;;;;;;5.07;3.90;;;;;;;;;;4995741;28;20188;-80
2021/12/12 13:44:58;;;;;;;4.40;4.00;;;;;;;;;;4995245;28;20220;-80
2021/12/12 13:47:43;;;;;;;5.05;3.72;;;;;;;;;;4995139;28;20207;-81
2021/12/12 13:50:19;;;;;;;5.13;3.83;;;;;;;;;;5005297;28;20604;-81
2021/12/12 13:52:54;;;;;;;4.35;3.95;;;;;;;;;;5034670;28;20202;-79
2021/12/12 13:55:28;;;;;;;4.10;3.70;;;;;;;;;;5034449;28;20252;-80
2021/12/12 13:58:08;;;;;;;4.90;4.38;;;;;;;;;;5034747;28;20217;-78
2021/12/12 14:00:43;;;;;;;6.03;4.78;;;;;;;;;;5033868;28;20202;-78
2021/12/12 14:03:22;;;;;;;6.18;4.30;;;;;;;;;;5033837;28;20202;-80
2021/12/12 14:05:54;;;;;;;5.88;4.72;;;;;;;;;;5033596;28;20235;-79
2021/12/12 14:08:25;;;;;;;6.30;5.53;;;;;;;;;;5014095;28;20776;-80
2021/12/12 14:10:56;;;;;;;5.00;4.13;;;;;;;;;;5014777;28;20581;-80
2021/12/12 14:13:31;;;;;;;5.22;4.35;;;;;;;;;;5014590;28;20207;-80
2021/12/12 14:16:05;;;;;;;3.72;3.42;;;;;;;;;;5014305;28;20209;-80
2021/12/12 14:18:38;;;;;;;3.97;3.67;;;;;;;;;;5014222;28;20214;-80
2021/12/12 14:21:06;;;;;;;4.55;4.15;;;;;;;;;;5015051;28;20213;-80
2021/12/12 14:23:37;;;;;;;3.67;3.38;;;;;;;;;;5015041;28;20269;-80
2021/12/12 14:26:13;;;;;;;4.88;3.33;;;;;;;;;;5019497;28;20569;-81
2021/12/12 14:28:45;;;;;;;5.68;4.35;;;;;;;;;;5034261;28;20221;-81
2021/12/12 14:31:17;;;;;;;4.80;4.13;;;;;;;;;;5034103;28;20645;-81
2021/12/12 14:33:56;;;;;;;4.78;4.20;;;;;;;;;;5034635;28;20190;-81
2021/12/12 14:36:27;;;;;;;4.32;3.92;;;;;;;;;;5034354;28;20554;-80
2021/12/12 14:38:56;;;;;;;6.22;3.53;;;;;;;;;;5034284;28;20222;-81
2021/12/12 14:41:33;;;;;;;4.60;4.20;;;;;;;;;;5026881;28;20198;-81
2021/12/12 14:44:07;;;;;;;4.20;3.65;;;;;;;;;;4994915;28;20603;-80
2021/12/12 14:46:37;;;;;;;3.83;3.53;;;;;;;;;;4995203;28;20576;-80
2021/12/12 14:49:10;;;;;;;4.43;3.75;;;;;;;;;;4994678;28;20294;-80
2021/12/12 14:51:46;;;;;;;4.18;3.60;;;;;;;;;;4996028;28;20176;-80
2021/12/12 14:54:16;;;;;;;3.42;3.13;;;;;;;;;;4997605;28;20196;-80
2021/12/12 14:56:48;;;;;;;3.17;2.90;;;;;;;;;;5000575;28;20184;-80
2021/12/12 14:59:26;;;;;;;3.30;3.00;;;;;;;;;;5018501;28;20249;-79
2021/12/12 15:01:56;;;;;;;2.65;2.45;;;;;;;;;;5018070;28;20604;-81
2021/12/12 15:04:28;;;;;;;3.45;3.15;;;;;;;;;;5017780;28;20218;-81
2021/12/12 15:07:00;;;;;;;5.30;3.20;;;;;;;;;;5017879;28;20620;-80
2021/12/12 15:09:41;;;;;;;3.50;3.20;;;;;;;;;;5017361;28;20219;-80
2021/12/12 15:12:16;;;;;;;3.00;2.80;;;;;;;;;;5017843;28;20191;-80
2021/12/12 15:14:51;;;;;;;4.13;3.78;;;;;;;;;;5017796;28;20210;-81
2021/12/12 15:17:20;;;;;;;3.25;3.05;;;;;;;;;;5017454;28;20191;-81
2021/12/12 15:19:51;;;;;;;3.50;3.20;;;;;;;;;;5017194;28;20215;-81
2021/12/12 15:22:20;;;;;;;4.00;3.70;;;;;;;;;;5017420;28;20616;-83
2021/12/12 15:24:51;;;;;;;3.05;2.83;;;;;;;;;;5017175;28;20191;-81
2021/12/12 15:27:23;;;;;;;3.97;2.75;;;;;;;;;;5016571;28;20211;-81
2021/12/12 15:29:57;;;;;;;6.53;3.85;;;;;;;;;;5016786;28;20222;-81
2021/12/12 15:32:28;;;;;;;2.97;2.78;;;;;;;;;;5017197;28;20187;-81
2021/12/12 15:34:59;;;;;;;3.78;3.38;;;;;;;;;;5017376;28;20191;-81
2021/12/12 15:37:32;;;;;;;3.97;3.47;;;;;;;;;;5017073;28;20187;-81
2021/12/12 15:40:04;;;;;;;2.65;2.45;;;;;;;;;;5016585;28;20708;-81
2021/12/12 15:42:33;;;;;;;2.95;2.75;;;;;;;;;;5016901;28;20195;-81